首页
METAR-TAF:

METAR-TAF

机场 :

馬紹爾群島國際機場

馬久羅, 馬紹爾群島

纬度: 07-04N, 经度: 171-17E, 海拔: 2米

当前天气观测

该预报发布于1小时和52分钟前的20:55 UTC
风速22节,风向北转西北
温度 28°C
湿度 84%
气压 1007 hPa
能見度: 24.1公里
少量云层高于1500英尺
散云层高于5000英尺
多云层高于12000英尺
阴天层高于30000英尺

METAR: PKMJ 262055Z 34022KT 15SM FEW015 SCT050 BKN120 OVC300 28/25 A2973

时间: 10:47 (22:47 UTC)

预报

该预报发布于5小时和19分钟前的17:28 UTC
预报有效从26日的 18点(UTC)到 27日的 18点(UTC)
风速14节,风向东转东北
能見度: 10公里
少量云层高于1600英尺
散云层高于4000英尺
多云层高于12000英尺
附近有阵雨
从 27日的 0800点(UTC)
风速11节,风向
能見度: 10公里
少量云层高于1800英尺
散云层高于5000英尺
多云层高于14000英尺
附近有阵雨

TAF: PKMJ 261728Z 2618/2718 06014KT P6SM VCSH FEW016 SCT040 BKN120 FM270800 09011KT P6SM VCSH FEW018 SCT050 BKN140

超过4000个机场的气象观测和天气预报(METAR&TAF报告)。

可查询的气象台以黄色和红色小点在地图上表示。

将鼠标移到小点上方,可查看气象台名称。

然后点击查看天气观测和预报。

如需切换地图:点击带黑十字的绿色按钮放大地图;点击带横线的绿色按钮缩小地图;或者点击绿色箭头查看邻近地区的地图。


METAR-TAF: